sensor_id;sensor_type;location;lat;lon;timestamp;temperature;humidity
21582;DHT22;10952;50.836;4.348;2022-12-01T00:01:11;8.30;99.90
21582;DHT22;10952;50.836;4.348;2022-12-01T00:03:37;8.40;99.90
21582;DHT22;10952;50.836;4.348;2022-12-01T00:06:06;8.30;99.90
21582;DHT22;10952;50.836;4.348;2022-12-01T00:08:34;8.30;99.90
21582;DHT22;10952;50.836;4.348;2022-12-01T00:11:08;8.40;99.90
21582;DHT22;10952;50.836;4.348;2022-12-01T00:13:34;8.40;99.90
21582;DHT22;10952;50.836;4.348;2022-12-01T00:16:11;8.40;99.90
21582;DHT22;10952;50.836;4.348;2022-12-01T00:18:36;8.40;99.90
21582;DHT22;10952;50.836;4.348;2022-12-01T00:21:02;8.50;99.90
21582;DHT22;10952;50.836;4.348;2022-12-01T00:23:28;8.40;99.90
21582;DHT22;10952;50.836;4.348;2022-12-01T00:25:53;8.40;99.90
21582;DHT22;10952;50.836;4.348;2022-12-01T00:28:19;8.20;99.90
21582;DHT22;10952;50.836;4.348;2022-12-01T00:30:45;8.30;99.90
21582;DHT22;10952;50.836;4.348;2022-12-01T00:33:11;8.40;99.90
21582;DHT22;10952;50.836;4.348;2022-12-01T00:35:36;8.20;99.90
21582;DHT22;10952;50.836;4.348;2022-12-01T00:38:02;8.20;99.90
21582;DHT22;10952;50.836;4.348;2022-12-01T00:40:28;8.40;99.90
21582;DHT22;10952;50.836;4.348;2022-12-01T00:42:53;8.50;99.90
21582;DHT22;10952;50.836;4.348;2022-12-01T00:45:19;8.50;99.90
21582;DHT22;10952;50.836;4.348;2022-12-01T00:47:44;8.40;99.90
21582;DHT22;10952;50.836;4.348;2022-12-01T00:50:10;8.50;99.90
21582;DHT22;10952;50.836;4.348;2022-12-01T00:52:36;8.60;99.90
21582;DHT22;10952;50.836;4.348;2022-12-01T00:55:02;8.50;99.90
21582;DHT22;10952;50.836;4.348;2022-12-01T00:57:27;8.40;99.90
21582;DHT22;10952;50.836;4.348;2022-12-01T00:59:53;8.30;99.90
21582;DHT22;10952;50.836;4.348;2022-12-01T01:02:18;8.50;99.90
21582;DHT22;10952;50.836;4.348;2022-12-01T01:04:44;8.50;99.90
21582;DHT22;10952;50.836;4.348;2022-12-01T01:07:10;8.60;99.90
21582;DHT22;10952;50.836;4.348;2022-12-01T01:09:36;8.60;99.90
21582;DHT22;10952;50.836;4.348;2022-12-01T01:12:01;8.30;99.90
21582;DHT22;10952;50.836;4.348;2022-12-01T01:14:27;8.30;99.90
21582;DHT22;10952;50.836;4.348;2022-12-01T01:16:52;8.40;99.90
21582;DHT22;10952;50.836;4.348;2022-12-01T01:19:21;8.40;99.90
21582;DHT22;10952;50.836;4.348;2022-12-01T01:21:48;8.50;99.90
21582;DHT22;10952;50.836;4.348;2022-12-01T01:24:14;8.50;99.90
21582;DHT22;10952;50.836;4.348;2022-12-01T01:26:40;8.30;99.90
21582;DHT22;10952;50.836;4.348;2022-12-01T01:29:06;8.30;99.90
21582;DHT22;10952;50.836;4.348;2022-12-01T01:31:32;8.30;99.90
21582;DHT22;10952;50.836;4.348;2022-12-01T01:33:59;8.20;99.90
21582;DHT22;10952;50.836;4.348;2022-12-01T01:36:26;8.10;99.90
21582;DHT22;10952;50.836;4.348;2022-12-01T01:38:52;8.10;99.90
21582;DHT22;10952;50.836;4.348;2022-12-01T01:41:20;8.30;99.90
21582;DHT22;10952;50.836;4.348;2022-12-01T01:44:00;8.30;99.90
21582;DHT22;10952;50.836;4.348;2022-12-01T01:46:33;8.50;99.90
21582;DHT22;10952;50.836;4.348;2022-12-01T01:49:10;8.40;99.90
21582;DHT22;10952;50.836;4.348;2022-12-01T01:51:52;8.50;99.90
21582;DHT22;10952;50.836;4.348;2022-12-01T01:54:24;8.60;99.90
21582;DHT22;10952;50.836;4.348;2022-12-01T01:56:51;8.40;99.90
21582;DHT22;10952;50.836;4.348;2022-12-01T01:59:21;8.50;99.90
21582;DHT22;10952;50.836;4.348;2022-12-01T02:01:51;8.30;99.90
21582;DHT22;10952;50.836;4.348;2022-12-01T02:04:22;8.50;99.90
21582;DHT22;10952;50.836;4.348;2022-12-01T02:06:48;8.40;99.90
21582;DHT22;10952;50.836;4.348;2022-12-01T02:09:14;8.50;99.90
21582;DHT22;10952;50.836;4.348;2022-12-01T02:14:56;8.30;99.90
21582;DHT22;10952;50.836;4.348;2022-12-01T02:17:30;8.30;99.90
21582;DHT22;10952;50.836;4.348;2022-12-01T02:31:25;8.40;99.90
21582;DHT22;10952;50.836;4.348;2022-12-01T02:34:12;8.30;99.90
21582;DHT22;10952;50.836;4.348;2022-12-01T02:37:23;8.20;99.90
21582;DHT22;10952;50.836;4.348;2022-12-01T02:39:51;8.20;99.90
21582;DHT22;10952;50.836;4.348;2022-12-01T02:45:57;8.20;99.90
21582;DHT22;10952;50.836;4.348;2022-12-01T02:48:28;8.10;99.90
21582;DHT22;10952;50.836;4.348;2022-12-01T02:50:57;8.30;99.90
21582;DHT22;10952;50.836;4.348;2022-12-01T02:53:24;8.30;99.90
21582;DHT22;10952;50.836;4.348;2022-12-01T02:55:55;8.10;99.90
21582;DHT22;10952;50.836;4.348;2022-12-01T02:58:22;8.10;99.90
21582;DHT22;10952;50.836;4.348;2022-12-01T03:15:01;8.20;99.90
21582;DHT22;10952;50.836;4.348;2022-12-01T03:17:38;8.30;99.90
21582;DHT22;10952;50.836;4.348;2022-12-01T03:20:13;8.10;99.90
21582;DHT22;10952;50.836;4.348;2022-12-01T03:22:49;8.10;99.90
21582;DHT22;10952;50.836;4.348;2022-12-01T03:25:17;8.10;99.90
21582;DHT22;10952;50.836;4.348;2022-12-01T03:27:45;8.10;99.90
21582;DHT22;10952;50.836;4.348;2022-12-01T03:30:13;8.00;99.90
21582;DHT22;10952;50.836;4.348;2022-12-01T03:32:55;7.90;99.90
21582;DHT22;10952;50.836;4.348;2022-12-01T03:35:22;7.70;99.90
21582;DHT22;10952;50.836;4.348;2022-12-01T03:38:11;7.90;99.90
21582;DHT22;10952;50.836;4.348;2022-12-01T03:40:39;8.00;99.90
21582;DHT22;10952;50.836;4.348;2022-12-01T03:43:09;8.10;99.90
21582;DHT22;10952;50.836;4.348;2022-12-01T03:48:21;8.00;99.90
21582;DHT22;10952;50.836;4.348;2022-12-01T03:51:14;8.00;99.90
21582;DHT22;10952;50.836;4.348;2022-12-01T03:53:57;7.90;99.90
21582;DHT22;10952;50.836;4.348;2022-12-01T03:56:26;7.90;99.90
21582;DHT22;10952;50.836;4.348;2022-12-01T03:58:56;7.70;99.90
21582;DHT22;10952;50.836;4.348;2022-12-01T04:01:23;7.60;99.90
21582;DHT22;10952;50.836;4.348;2022-12-01T04:03:51;7.50;99.90
21582;DHT22;10952;50.836;4.348;2022-12-01T04:06:16;7.60;99.90
21582;DHT22;10952;50.836;4.348;2022-12-01T04:08:42;7.60;99.90
21582;DHT22;10952;50.836;4.348;2022-12-01T04:11:08;7.60;99.90
21582;DHT22;10952;50.836;4.348;2022-12-01T04:13:52;7.70;99.90
21582;DHT22;10952;50.836;4.348;2022-12-01T04:16:18;7.70;99.90
21582;DHT22;10952;50.836;4.348;2022-12-01T04:18:43;7.60;99.90
21582;DHT22;10952;50.836;4.348;2022-12-01T04:21:09;7.60;99.90
21582;DHT22;10952;50.836;4.348;2022-12-01T04:23:35;7.80;99.90
21582;DHT22;10952;50.836;4.348;2022-12-01T04:26:19;7.90;99.90
21582;DHT22;10952;50.836;4.348;2022-12-01T04:28:44;8.10;99.90
21582;DHT22;10952;50.836;4.348;2022-12-01T04:31:10;8.10;99.90
21582;DHT22;10952;50.836;4.348;2022-12-01T04:33:36;8.10;99.90
21582;DHT22;10952;50.836;4.348;2022-12-01T04:36:01;8.10;99.90
21582;DHT22;10952;50.836;4.348;2022-12-01T04:38:27;8.00;99.90
21582;DHT22;10952;50.836;4.348;2022-12-01T04:40:53;8.00;99.90
21582;DHT22;10952;50.836;4.348;2022-12-01T04:43:19;7.80;99.90
21582;DHT22;10952;50.836;4.348;2022-12-01T04:45:45;7.70;99.90
21582;DHT22;10952;50.836;4.348;2022-12-01T04:48:11;7.80;99.90
21582;DHT22;10952;50.836;4.348;2022-12-01T04:50:36;8.00;99.90
21582;DHT22;10952;50.836;4.348;2022-12-01T04:53:03;8.00;99.90
21582;DHT22;10952;50.836;4.348;2022-12-01T04:55:28;8.10;99.90
21582;DHT22;10952;50.836;4.348;2022-12-01T04:57:54;7.80;99.90
21582;DHT22;10952;50.836;4.348;2022-12-01T05:00:20;7.80;99.90
21582;DHT22;10952;50.836;4.348;2022-12-01T05:02:45;7.80;99.90
21582;DHT22;10952;50.836;4.348;2022-12-01T05:05:12;7.80;99.90
21582;DHT22;10952;50.836;4.348;2022-12-01T05:07:39;7.80;99.90
21582;DHT22;10952;50.836;4.348;2022-12-01T05:10:05;7.90;99.90
21582;DHT22;10952;50.836;4.348;2022-12-01T05:12:31;8.00;99.90
21582;DHT22;10952;50.836;4.348;2022-12-01T05:14:56;8.10;99.90
21582;DHT22;10952;50.836;4.348;2022-12-01T05:17:22;8.20;99.90
21582;DHT22;10952;50.836;4.348;2022-12-01T05:19:48;8.10;99.90
21582;DHT22;10952;50.836;4.348;2022-12-01T05:22:46;8.20;99.90
21582;DHT22;10952;50.836;4.348;2022-12-01T05:25:11;8.20;99.90
21582;DHT22;10952;50.836;4.348;2022-12-01T05:27:37;8.10;99.90
21582;DHT22;10952;50.836;4.348;2022-12-01T05:30:03;8.20;99.90
21582;DHT22;10952;50.836;4.348;2022-12-01T05:32:29;8.30;99.90
21582;DHT22;10952;50.836;4.348;2022-12-01T05:34:55;8.30;99.90
21582;DHT22;10952;50.836;4.348;2022-12-01T05:37:20;8.10;99.90
21582;DHT22;10952;50.836;4.348;2022-12-01T05:39:46;8.20;99.90
21582;DHT22;10952;50.836;4.348;2022-12-01T05:42:11;8.30;99.90
21582;DHT22;10952;50.836;4.348;2022-12-01T05:44:37;8.30;99.90
21582;DHT22;10952;50.836;4.348;2022-12-01T05:47:03;8.30;99.90
21582;DHT22;10952;50.836;4.348;2022-12-01T05:49:28;8.10;99.90
21582;DHT22;10952;50.836;4.348;2022-12-01T05:51:54;8.10;99.90
21582;DHT22;10952;50.836;4.348;2022-12-01T05:54:19;8.10;99.90
21582;DHT22;10952;50.836;4.348;2022-12-01T05:56:45;8.10;99.90
21582;DHT22;10952;50.836;4.348;2022-12-01T05:59:11;8.00;99.90
21582;DHT22;10952;50.836;4.348;2022-12-01T06:01:36;8.10;99.90
21582;DHT22;10952;50.836;4.348;2022-12-01T06:04:02;8.20;99.90
21582;DHT22;10952;50.836;4.348;2022-12-01T06:06:28;8.30;99.90
21582;DHT22;10952;50.836;4.348;2022-12-01T06:08:53;8.30;99.90
21582;DHT22;10952;50.836;4.348;2022-12-01T06:11:19;8.30;99.90
21582;DHT22;10952;50.836;4.348;2022-12-01T06:13:45;8.40;99.90
21582;DHT22;10952;50.836;4.348;2022-12-01T06:16:11;8.20;99.90
21582;DHT22;10952;50.836;4.348;2022-12-01T06:18:37;8.10;99.90
21582;DHT22;10952;50.836;4.348;2022-12-01T06:21:05;8.40;99.90
21582;DHT22;10952;50.836;4.348;2022-12-01T06:23:31;8.40;99.90
21582;DHT22;10952;50.836;4.348;2022-12-01T06:25:57;8.40;99.90
21582;DHT22;10952;50.836;4.348;2022-12-01T06:28:23;8.40;99.90
21582;DHT22;10952;50.836;4.348;2022-12-01T06:30:48;8.50;99.90
21582;DHT22;10952;50.836;4.348;2022-12-01T06:33:14;8.50;99.90
21582;DHT22;10952;50.836;4.348;2022-12-01T06:35:40;8.30;99.90
21582;DHT22;10952;50.836;4.348;2022-12-01T06:38:05;8.10;99.90
21582;DHT22;10952;50.836;4.348;2022-12-01T06:40:31;8.20;99.90
21582;DHT22;10952;50.836;4.348;2022-12-01T06:43:00;8.20;99.90
21582;DHT22;10952;50.836;4.348;2022-12-01T06:45:30;8.10;99.90
21582;DHT22;10952;50.836;4.348;2022-12-01T06:47:56;8.30;99.90
21582;DHT22;10952;50.836;4.348;2022-12-01T06:50:23;8.30;99.90
21582;DHT22;10952;50.836;4.348;2022-12-01T06:52:49;8.10;99.90
21582;DHT22;10952;50.836;4.348;2022-12-01T06:55:15;8.30;99.90
21582;DHT22;10952;50.836;4.348;2022-12-01T06:57:41;8.40;99.90
21582;DHT22;10952;50.836;4.348;2022-12-01T07:00:08;8.40;99.90
21582;DHT22;10952;50.836;4.348;2022-12-01T07:02:35;8.40;99.90
21582;DHT22;10952;50.836;4.348;2022-12-01T07:05:00;8.50;99.90
21582;DHT22;10952;50.836;4.348;2022-12-01T07:07:26;8.50;99.90
21582;DHT22;10952;50.836;4.348;2022-12-01T07:09:52;8.50;99.90
21582;DHT22;10952;50.836;4.348;2022-12-01T07:12:18;8.60;99.90
21582;DHT22;10952;50.836;4.348;2022-12-01T07:14:44;8.60;99.90
21582;DHT22;10952;50.836;4.348;2022-12-01T07:17:09;8.50;99.90
21582;DHT22;10952;50.836;4.348;2022-12-01T07:19:35;8.40;99.90
21582;DHT22;10952;50.836;4.348;2022-12-01T07:22:01;8.40;99.90
21582;DHT22;10952;50.836;4.348;2022-12-01T07:24:28;8.50;99.90
21582;DHT22;10952;50.836;4.348;2022-12-01T07:26:55;8.30;99.90
21582;DHT22;10952;50.836;4.348;2022-12-01T07:29:20;8.40;99.90
21582;DHT22;10952;50.836;4.348;2022-12-01T07:31:46;8.50;99.90
21582;DHT22;10952;50.836;4.348;2022-12-01T07:34:12;8.40;99.90
21582;DHT22;10952;50.836;4.348;2022-12-01T07:36:37;8.40;99.90
21582;DHT22;10952;50.836;4.348;2022-12-01T07:39:05;8.50;99.90
21582;DHT22;10952;50.836;4.348;2022-12-01T07:41:32;8.40;99.90
21582;DHT22;10952;50.836;4.348;2022-12-01T07:43:58;8.40;99.90
21582;DHT22;10952;50.836;4.348;2022-12-01T07:46:26;8.50;99.90
21582;DHT22;10952;50.836;4.348;2022-12-01T07:48:53;8.70;99.90
21582;DHT22;10952;50.836;4.348;2022-12-01T07:51:19;8.60;99.90
21582;DHT22;10952;50.836;4.348;2022-12-01T07:53:46;8.60;99.90
21582;DHT22;10952;50.836;4.348;2022-12-01T07:56:14;8.50;99.90
21582;DHT22;10952;50.836;4.348;2022-12-01T07:58:40;8.60;99.90
21582;DHT22;10952;50.836;4.348;2022-12-01T08:01:08;8.50;99.90
21582;DHT22;10952;50.836;4.348;2022-12-01T08:03:34;8.50;99.90
21582;DHT22;10952;50.836;4.348;2022-12-01T08:06:01;8.40;99.90
21582;DHT22;10952;50.836;4.348;2022-12-01T08:08:29;8.50;99.90
21582;DHT22;10952;50.836;4.348;2022-12-01T08:11:02;8.60;99.90
21582;DHT22;10952;50.836;4.348;2022-12-01T08:13:28;8.60;99.90
21582;DHT22;10952;50.836;4.348;2022-12-01T08:15:54;8.70;99.90
21582;DHT22;10952;50.836;4.348;2022-12-01T08:18:20;8.70;99.90
21582;DHT22;10952;50.836;4.348;2022-12-01T08:20:47;8.60;99.90
21582;DHT22;10952;50.836;4.348;2022-12-01T08:23:13;8.50;99.90
21582;DHT22;10952;50.836;4.348;2022-12-01T08:25:39;8.50;99.90
21582;DHT22;10952;50.836;4.348;2022-12-01T08:28:04;8.50;99.90
21582;DHT22;10952;50.836;4.348;2022-12-01T08:30:30;8.50;99.90
21582;DHT22;10952;50.836;4.348;2022-12-01T08:32:56;8.60;99.90
21582;DHT22;10952;50.836;4.348;2022-12-01T08:35:23;8.60;99.90
21582;DHT22;10952;50.836;4.348;2022-12-01T08:37:52;8.50;99.90
21582;DHT22;10952;50.836;4.348;2022-12-01T08:40:19;8.50;99.90
21582;DHT22;10952;50.836;4.348;2022-12-01T08:42:45;8.50;99.90
21582;DHT22;10952;50.836;4.348;2022-12-01T08:45:11;8.30;99.90
21582;DHT22;10952;50.836;4.348;2022-12-01T08:47:37;8.30;99.90
21582;DHT22;10952;50.836;4.348;2022-12-01T08:50:03;8.40;99.90
21582;DHT22;10952;50.836;4.348;2022-12-01T08:52:33;8.60;99.90
21582;DHT22;10952;50.836;4.348;2022-12-01T08:54:59;8.60;99.90
21582;DHT22;10952;50.836;4.348;2022-12-01T08:57:27;8.60;99.90
21582;DHT22;10952;50.836;4.348;2022-12-01T08:59:53;8.70;99.90
21582;DHT22;10952;50.836;4.348;2022-12-01T09:02:18;8.80;99.90
21582;DHT22;10952;50.836;4.348;2022-12-01T09:04:48;8.80;99.90
21582;DHT22;10952;50.836;4.348;2022-12-01T09:07:18;8.80;99.90
21582;DHT22;10952;50.836;4.348;2022-12-01T09:09:44;8.70;99.90
21582;DHT22;10952;50.836;4.348;2022-12-01T09:12:10;8.60;99.90
21582;DHT22;10952;50.836;4.348;2022-12-01T09:14:38;8.80;99.90
21582;DHT22;10952;50.836;4.348;2022-12-01T09:17:06;9.00;99.90
21582;DHT22;10952;50.836;4.348;2022-12-01T09:19:33;9.10;99.90
21582;DHT22;10952;50.836;4.348;2022-12-01T09:21:59;9.20;99.90
21582;DHT22;10952;50.836;4.348;2022-12-01T09:24:25;9.20;99.90
21582;DHT22;10952;50.836;4.348;2022-12-01T09:26:55;9.00;99.90
21582;DHT22;10952;50.836;4.348;2022-12-01T09:29:21;8.90;99.90
21582;DHT22;10952;50.836;4.348;2022-12-01T09:31:47;9.00;99.90
21582;DHT22;10952;50.836;4.348;2022-12-01T09:34:15;9.10;99.90
21582;DHT22;10952;50.836;4.348;2022-12-01T09:36:41;9.20;99.90
21582;DHT22;10952;50.836;4.348;2022-12-01T09:39:11;9.00;99.90
21582;DHT22;10952;50.836;4.348;2022-12-01T09:42:02;9.00;99.90
21582;DHT22;10952;50.836;4.348;2022-12-01T09:44:52;8.90;99.90
21582;DHT22;10952;50.836;4.348;2022-12-01T09:47:25;9.00;99.90
21582;DHT22;10952;50.836;4.348;2022-12-01T09:50:03;9.00;99.90
21582;DHT22;10952;50.836;4.348;2022-12-01T09:52:40;9.00;99.90
21582;DHT22;10952;50.836;4.348;2022-12-01T09:55:13;8.90;99.90
21582;DHT22;10952;50.836;4.348;2022-12-01T09:57:40;8.80;99.90
21582;DHT22;10952;50.836;4.348;2022-12-01T10:00:30;9.00;99.90
21582;DHT22;10952;50.836;4.348;2022-12-01T10:03:49;9.20;99.90
21582;DHT22;10952;50.836;4.348;2022-12-01T10:06:16;9.00;99.90
21582;DHT22;10952;50.836;4.348;2022-12-01T10:11:45;9.10;99.90
21582;DHT22;10952;50.836;4.348;2022-12-01T10:14:17;9.20;99.90
21582;DHT22;10952;50.836;4.348;2022-12-01T10:17:01;9.30;99.90
21582;DHT22;10952;50.836;4.348;2022-12-01T10:20:03;9.50;99.90
21582;DHT22;10952;50.836;4.348;2022-12-01T10:25:21;9.50;99.90
21582;DHT22;10952;50.836;4.348;2022-12-01T10:30:28;9.40;99.90
21582;DHT22;10952;50.836;4.348;2022-12-01T10:35:39;9.40;99.90
21582;DHT22;10952;50.836;4.348;2022-12-01T10:38:14;9.60;99.90
21582;DHT22;10952;50.836;4.348;2022-12-01T10:40:43;9.60;99.90
21582;DHT22;10952;50.836;4.348;2022-12-01T10:43:10;9.70;99.90
21582;DHT22;10952;50.836;4.348;2022-12-01T10:45:42;9.50;99.90
21582;DHT22;10952;50.836;4.348;2022-12-01T10:48:14;9.50;99.90
21582;DHT22;10952;50.836;4.348;2022-12-01T10:56:14;9.70;99.90
21582;DHT22;10952;50.836;4.348;2022-12-01T10:58:46;9.60;99.90
21582;DHT22;10952;50.836;4.348;2022-12-01T11:01:22;9.70;99.90
21582;DHT22;10952;50.836;4.348;2022-12-01T11:03:55;9.70;99.90
21582;DHT22;10952;50.836;4.348;2022-12-01T11:06:24;9.70;99.90
21582;DHT22;10952;50.836;4.348;2022-12-01T11:09:02;9.90;99.90
21582;DHT22;10952;50.836;4.348;2022-12-01T11:11:36;9.90;99.90
21582;DHT22;10952;50.836;4.348;2022-12-01T11:14:16;9.90;99.90
21582;DHT22;10952;50.836;4.348;2022-12-01T11:16:45;9.90;99.90
21582;DHT22;10952;50.836;4.348;2022-12-01T11:21:55;9.80;99.90
21582;DHT22;10952;50.836;4.348;2022-12-01T11:26:56;10.00;99.90
21582;DHT22;10952;50.836;4.348;2022-12-01T11:29:34;9.80;99.90
21582;DHT22;10952;50.836;4.348;2022-12-01T11:32:10;9.90;99.90
21582;DHT22;10952;50.836;4.348;2022-12-01T11:34:37;10.10;99.90
21582;DHT22;10952;50.836;4.348;2022-12-01T11:37:07;10.10;99.90
21582;DHT22;10952;50.836;4.348;2022-12-01T11:39:40;10.10;99.90
21582;DHT22;10952;50.836;4.348;2022-12-01T11:44:46;10.00;99.90
21582;DHT22;10952;50.836;4.348;2022-12-01T11:47:15;10.00;99.90
21582;DHT22;10952;50.836;4.348;2022-12-01T11:49:44;10.00;99.90
21582;DHT22;10952;50.836;4.348;2022-12-01T11:52:22;9.90;99.90
21582;DHT22;10952;50.836;4.348;2022-12-01T11:55:21;9.90;99.90
21582;DHT22;10952;50.836;4.348;2022-12-01T11:57:49;10.10;99.90
21582;DHT22;10952;50.836;4.348;2022-12-01T12:00:22;10.20;99.90
21582;DHT22;10952;50.836;4.348;2022-12-01T12:17:10;10.20;99.90
21582;DHT22;10952;50.836;4.348;2022-12-01T12:19:39;10.20;99.90
21582;DHT22;10952;50.836;4.348;2022-12-01T12:31:38;10.10;99.90
21582;DHT22;10952;50.836;4.348;2022-12-01T12:39:55;10.10;99.90
21582;DHT22;10952;50.836;4.348;2022-12-01T12:41:55;10.10;99.90
21582;DHT22;10952;50.836;4.348;2022-12-01T12:50:10;10.10;99.90
21582;DHT22;10952;50.836;4.348;2022-12-01T12:52:40;10.00;99.90
21582;DHT22;10952;50.836;4.348;2022-12-01T12:55:17;9.90;99.90
21582;DHT22;10952;50.836;4.348;2022-12-01T12:57:53;9.90;99.90
21582;DHT22;10952;50.836;4.348;2022-12-01T13:00:22;10.00;99.90
21582;DHT22;10952;50.836;4.348;2022-12-01T13:05:49;10.30;99.90
21582;DHT22;10952;50.836;4.348;2022-12-01T13:08:23;10.30;99.90
21582;DHT22;10952;50.836;4.348;2022-12-01T13:10:55;10.30;99.90
21582;DHT22;10952;50.836;4.348;2022-12-01T13:16:18;10.10;99.90
21582;DHT22;10952;50.836;4.348;2022-12-01T13:18:58;10.10;99.90
21582;DHT22;10952;50.836;4.348;2022-12-01T13:21:36;10.00;99.90
21582;DHT22;10952;50.836;4.348;2022-12-01T13:24:04;10.00;99.90
21582;DHT22;10952;50.836;4.348;2022-12-01T13:26:31;9.90;99.90
21582;DHT22;10952;50.836;4.348;2022-12-01T13:28:59;9.70;99.90
21582;DHT22;10952;50.836;4.348;2022-12-01T13:31:25;9.90;99.90
21582;DHT22;10952;50.836;4.348;2022-12-01T13:34:02;9.90;99.90
21582;DHT22;10952;50.836;4.348;2022-12-01T13:36:29;9.90;99.90
21582;DHT22;10952;50.836;4.348;2022-12-01T13:39:14;9.90;99.90
21582;DHT22;10952;50.836;4.348;2022-12-01T13:41:42;9.80;99.90
21582;DHT22;10952;50.836;4.348;2022-12-01T13:44:31;9.70;99.90
21582;DHT22;10952;50.836;4.348;2022-12-01T14:00:38;9.80;99.90
21582;DHT22;10952;50.836;4.348;2022-12-01T14:08:22;10.00;99.90
21582;DHT22;10952;50.836;4.348;2022-12-01T14:11:06;10.00;99.90
21582;DHT22;10952;50.836;4.348;2022-12-01T14:13:53;9.80;99.90
21582;DHT22;10952;50.836;4.348;2022-12-01T14:16:21;9.80;99.90
21582;DHT22;10952;50.836;4.348;2022-12-01T14:18:54;9.60;99.90
21582;DHT22;10952;50.836;4.348;2022-12-01T14:21:45;9.50;99.90
21582;DHT22;10952;50.836;4.348;2022-12-01T14:24:23;9.60;99.90
21582;DHT22;10952;50.836;4.348;2022-12-01T14:26:50;9.50;99.90
21582;DHT22;10952;50.836;4.348;2022-12-01T14:34:18;9.40;99.90
21582;DHT22;10952;50.836;4.348;2022-12-01T14:39:47;9.70;99.90
21582;DHT22;10952;50.836;4.348;2022-12-01T14:42:35;9.60;99.90
21582;DHT22;10952;50.836;4.348;2022-12-01T14:45:34;9.70;99.90
21582;DHT22;10952;50.836;4.348;2022-12-01T14:48:08;9.60;99.90
21582;DHT22;10952;50.836;4.348;2022-12-01T14:53:15;9.60;99.90
21582;DHT22;10952;50.836;4.348;2022-12-01T14:55:50;9.70;99.90
21582;DHT22;10952;50.836;4.348;2022-12-01T14:58:23;9.60;99.90
21582;DHT22;10952;50.836;4.348;2022-12-01T15:03:28;9.60;99.90
21582;DHT22;10952;50.836;4.348;2022-12-01T15:05:56;9.50;99.90
21582;DHT22;10952;50.836;4.348;2022-12-01T15:08:25;9.60;99.90
21582;DHT22;10952;50.836;4.348;2022-12-01T15:10:55;9.60;99.90
21582;DHT22;10952;50.836;4.348;2022-12-01T15:13:28;9.60;99.90
21582;DHT22;10952;50.836;4.348;2022-12-01T15:15:58;9.60;99.90
21582;DHT22;10952;50.836;4.348;2022-12-01T15:18:32;9.60;99.90
21582;DHT22;10952;50.836;4.348;2022-12-01T15:21:08;9.50;99.90
21582;DHT22;10952;50.836;4.348;2022-12-01T15:23:35;9.60;99.90
21582;DHT22;10952;50.836;4.348;2022-12-01T15:26:01;9.70;99.90
21582;DHT22;10952;50.836;4.348;2022-12-01T15:28:32;9.70;99.90
21582;DHT22;10952;50.836;4.348;2022-12-01T15:30:59;9.80;99.90
21582;DHT22;10952;50.836;4.348;2022-12-01T15:33:34;9.70;99.90
21582;DHT22;10952;50.836;4.348;2022-12-01T15:36:01;9.60;99.90
21582;DHT22;10952;50.836;4.348;2022-12-01T15:38:30;9.60;99.90
21582;DHT22;10952;50.836;4.348;2022-12-01T15:40:58;9.50;99.90
21582;DHT22;10952;50.836;4.348;2022-12-01T15:46:09;9.40;99.90
21582;DHT22;10952;50.836;4.348;2022-12-01T15:48:37;9.20;99.90
21582;DHT22;10952;50.836;4.348;2022-12-01T15:51:10;9.20;99.90
21582;DHT22;10952;50.836;4.348;2022-12-01T15:53:44;9.30;99.90
21582;DHT22;10952;50.836;4.348;2022-12-01T15:56:12;9.60;99.90
21582;DHT22;10952;50.836;4.348;2022-12-01T15:58:45;9.60;99.90
21582;DHT22;10952;50.836;4.348;2022-12-01T16:01:15;9.80;99.90
21582;DHT22;10952;50.836;4.348;2022-12-01T16:03:57;9.70;99.90
21582;DHT22;10952;50.836;4.348;2022-12-01T16:06:33;9.60;99.90
21582;DHT22;10952;50.836;4.348;2022-12-01T16:09:01;9.40;99.90
21582;DHT22;10952;50.836;4.348;2022-12-01T16:11:28;9.50;99.90
21582;DHT22;10952;50.836;4.348;2022-12-01T16:19:23;9.70;99.90
21582;DHT22;10952;50.836;4.348;2022-12-01T16:22:12;9.50;99.90
21582;DHT22;10952;50.836;4.348;2022-12-01T16:24:53;9.20;99.90
21582;DHT22;10952;50.836;4.348;2022-12-01T16:27:27;9.10;99.90
21582;DHT22;10952;50.836;4.348;2022-12-01T16:29:59;9.10;99.90
21582;DHT22;10952;50.836;4.348;2022-12-01T16:32:35;9.20;99.90
21582;DHT22;10952;50.836;4.348;2022-12-01T16:35:03;9.40;99.90
21582;DHT22;10952;50.836;4.348;2022-12-01T16:37:30;9.30;99.90
21582;DHT22;10952;50.836;4.348;2022-12-01T16:39:56;9.30;99.90
21582;DHT22;10952;50.836;4.348;2022-12-01T16:42:23;9.20;99.90
21582;DHT22;10952;50.836;4.348;2022-12-01T16:44:50;9.20;99.90
21582;DHT22;10952;50.836;4.348;2022-12-01T16:47:19;9.30;99.90
21582;DHT22;10952;50.836;4.348;2022-12-01T16:49:46;9.30;99.90
21582;DHT22;10952;50.836;4.348;2022-12-01T16:52:12;9.10;99.90
21582;DHT22;10952;50.836;4.348;2022-12-01T16:54:38;9.20;99.90
21582;DHT22;10952;50.836;4.348;2022-12-01T16:57:04;9.10;99.90
21582;DHT22;10952;50.836;4.348;2022-12-01T16:59:30;9.10;99.90
21582;DHT22;10952;50.836;4.348;2022-12-01T17:01:56;9.00;99.90
21582;DHT22;10952;50.836;4.348;2022-12-01T17:04:22;9.10;99.90
21582;DHT22;10952;50.836;4.348;2022-12-01T17:06:48;9.00;99.90
21582;DHT22;10952;50.836;4.348;2022-12-01T17:09:14;8.90;99.90
21582;DHT22;10952;50.836;4.348;2022-12-01T17:11:39;9.00;99.90
21582;DHT22;10952;50.836;4.348;2022-12-01T17:14:05;8.90;99.90
21582;DHT22;10952;50.836;4.348;2022-12-01T17:16:31;8.80;99.90
21582;DHT22;10952;50.836;4.348;2022-12-01T17:18:59;8.80;99.90
21582;DHT22;10952;50.836;4.348;2022-12-01T17:21:25;8.80;99.90
21582;DHT22;10952;50.836;4.348;2022-12-01T17:23:51;8.80;99.90
21582;DHT22;10952;50.836;4.348;2022-12-01T17:26:18;9.00;99.90
21582;DHT22;10952;50.836;4.348;2022-12-01T17:28:45;8.90;99.90
21582;DHT22;10952;50.836;4.348;2022-12-01T17:31:11;9.00;99.90
21582;DHT22;10952;50.836;4.348;2022-12-01T17:33:38;8.90;99.90
21582;DHT22;10952;50.836;4.348;2022-12-01T17:36:08;8.90;99.90
21582;DHT22;10952;50.836;4.348;2022-12-01T17:38:40;8.70;99.90
21582;DHT22;10952;50.836;4.348;2022-12-01T17:41:19;8.80;99.90
21582;DHT22;10952;50.836;4.348;2022-12-01T17:43:46;8.90;99.90
21582;DHT22;10952;50.836;4.348;2022-12-01T17:46:12;8.90;99.90
21582;DHT22;10952;50.836;4.348;2022-12-01T17:48:43;8.80;99.90
21582;DHT22;10952;50.836;4.348;2022-12-01T17:51:10;8.70;99.90
21582;DHT22;10952;50.836;4.348;2022-12-01T17:53:37;8.80;99.90
21582;DHT22;10952;50.836;4.348;2022-12-01T17:56:11;8.70;99.90
21582;DHT22;10952;50.836;4.348;2022-12-01T17:58:37;8.80;99.90
21582;DHT22;10952;50.836;4.348;2022-12-01T18:01:03;8.80;99.90
21582;DHT22;10952;50.836;4.348;2022-12-01T18:03:29;8.70;99.90
21582;DHT22;10952;50.836;4.348;2022-12-01T18:05:59;8.80;99.90
21582;DHT22;10952;50.836;4.348;2022-12-01T18:08:27;8.70;99.90
21582;DHT22;10952;50.836;4.348;2022-12-01T18:10:53;8.90;99.90
21582;DHT22;10952;50.836;4.348;2022-12-01T18:13:20;8.80;99.90
21582;DHT22;10952;50.836;4.348;2022-12-01T18:15:47;8.80;99.90
21582;DHT22;10952;50.836;4.348;2022-12-01T18:18:13;8.90;99.90
21582;DHT22;10952;50.836;4.348;2022-12-01T18:20:43;8.70;99.90